sensor_id;sensor_type;location;lat;lon;timestamp;P1;durP1;ratioP1;P2;durP2;ratioP2
23642;SDS011;11998;55.788;37.572;2022-12-10T00:00:11;54.50;;;27.02;;
23642;SDS011;11998;55.788;37.572;2022-12-10T00:01:14;59.40;;;27.52;;
23642;SDS011;11998;55.788;37.572;2022-12-10T00:02:16;56.20;;;25.92;;
23642;SDS011;11998;55.788;37.572;2022-12-10T00:03:17;53.70;;;26.53;;
23642;SDS011;11998;55.788;37.572;2022-12-10T00:04:18;57.13;;;27.00;;
23642;SDS011;11998;55.788;37.572;2022-12-10T00:05:19;53.90;;;25.90;;
23642;SDS011;11998;55.788;37.572;2022-12-10T00:06:22;52.53;;;25.37;;
23642;SDS011;11998;55.788;37.572;2022-12-10T00:07:24;48.08;;;24.88;;
23642;SDS011;11998;55.788;37.572;2022-12-10T00:08:25;57.80;;;26.87;;
23642;SDS011;11998;55.788;37.572;2022-12-10T00:09:25;59.53;;;26.13;;
23642;SDS011;11998;55.788;37.572;2022-12-10T00:10:26;59.43;;;26.77;;
23642;SDS011;11998;55.788;37.572;2022-12-10T00:11:26;61.17;;;26.63;;
23642;SDS011;11998;55.788;37.572;2022-12-10T00:12:27;50.10;;;25.50;;
23642;SDS011;11998;55.788;37.572;2022-12-10T00:13:27;51.40;;;26.00;;
23642;SDS011;11998;55.788;37.572;2022-12-10T00:14:28;52.80;;;26.03;;
23642;SDS011;11998;55.788;37.572;2022-12-10T00:15:29;71.93;;;27.03;;
23642;SDS011;11998;55.788;37.572;2022-12-10T00:16:29;57.30;;;26.43;;
23642;SDS011;11998;55.788;37.572;2022-12-10T00:17:33;62.50;;;26.13;;
23642;SDS011;11998;55.788;37.572;2022-12-10T00:18:34;52.30;;;25.87;;
23642;SDS011;11998;55.788;37.572;2022-12-10T00:19:35;54.60;;;26.75;;
23642;SDS011;11998;55.788;37.572;2022-12-10T00:20:36;56.43;;;25.60;;
23642;SDS011;11998;55.788;37.572;2022-12-10T00:21:37;57.53;;;26.20;;
23642;SDS011;11998;55.788;37.572;2022-12-10T00:22:38;57.53;;;25.30;;
23642;SDS011;11998;55.788;37.572;2022-12-10T00:23:39;54.20;;;25.77;;
23642;SDS011;11998;55.788;37.572;2022-12-10T00:24:40;57.97;;;25.80;;
23642;SDS011;11998;55.788;37.572;2022-12-10T00:25:40;61.93;;;27.47;;
23642;SDS011;11998;55.788;37.572;2022-12-10T00:26:41;72.30;;;27.60;;
23642;SDS011;11998;55.788;37.572;2022-12-10T00:27:42;61.67;;;25.73;;
23642;SDS011;11998;55.788;37.572;2022-12-10T00:28:42;60.30;;;27.53;;
23642;SDS011;11998;55.788;37.572;2022-12-10T00:29:43;58.85;;;26.10;;
23642;SDS011;11998;55.788;37.572;2022-12-10T00:30:44;51.63;;;24.33;;
23642;SDS011;11998;55.788;37.572;2022-12-10T00:31:44;54.67;;;24.73;;
23642;SDS011;11998;55.788;37.572;2022-12-10T00:32:45;80.43;;;24.93;;
23642;SDS011;11998;55.788;37.572;2022-12-10T00:33:46;54.07;;;23.30;;
23642;SDS011;11998;55.788;37.572;2022-12-10T00:34:47;71.10;;;25.13;;
23642;SDS011;11998;55.788;37.572;2022-12-10T00:35:48;56.67;;;24.67;;
23642;SDS011;11998;55.788;37.572;2022-12-10T00:36:48;65.03;;;25.53;;
23642;SDS011;11998;55.788;37.572;2022-12-10T00:37:49;57.30;;;23.60;;
23642;SDS011;11998;55.788;37.572;2022-12-10T00:38:50;55.27;;;25.00;;
23642;SDS011;11998;55.788;37.572;2022-12-10T00:39:50;53.97;;;24.77;;
23642;SDS011;11998;55.788;37.572;2022-12-10T00:40:51;55.83;;;24.77;;
23642;SDS011;11998;55.788;37.572;2022-12-10T00:41:51;54.70;;;25.13;;
23642;SDS011;11998;55.788;37.572;2022-12-10T00:42:51;52.10;;;25.03;;
23642;SDS011;11998;55.788;37.572;2022-12-10T00:43:52;56.37;;;24.33;;
23642;SDS011;11998;55.788;37.572;2022-12-10T00:44:52;53.37;;;23.47;;
23642;SDS011;11998;55.788;37.572;2022-12-10T00:45:53;58.97;;;25.67;;
23642;SDS011;11998;55.788;37.572;2022-12-10T00:46:54;87.50;;;29.58;;
23642;SDS011;11998;55.788;37.572;2022-12-10T00:47:54;58.37;;;25.83;;
23642;SDS011;11998;55.788;37.572;2022-12-10T00:48:55;62.73;;;26.53;;
23642;SDS011;11998;55.788;37.572;2022-12-10T00:49:56;63.37;;;26.60;;
23642;SDS011;11998;55.788;37.572;2022-12-10T00:51:59;55.67;;;25.42;;
23642;SDS011;11998;55.788;37.572;2022-12-10T00:53:00;55.87;;;24.37;;
23642;SDS011;11998;55.788;37.572;2022-12-10T00:54:00;56.53;;;26.20;;
23642;SDS011;11998;55.788;37.572;2022-12-10T00:55:01;56.03;;;24.80;;
23642;SDS011;11998;55.788;37.572;2022-12-10T00:56:02;52.67;;;23.80;;
23642;SDS011;11998;55.788;37.572;2022-12-10T00:57:03;56.17;;;24.23;;
23642;SDS011;11998;55.788;37.572;2022-12-10T00:58:04;59.23;;;24.67;;
23642;SDS011;11998;55.788;37.572;2022-12-10T00:59:04;65.97;;;25.60;;
23642;SDS011;11998;55.788;37.572;2022-12-10T01:00:05;59.43;;;23.83;;
23642;SDS011;11998;55.788;37.572;2022-12-10T01:01:07;55.35;;;23.38;;
23642;SDS011;11998;55.788;37.572;2022-12-10T01:02:09;46.58;;;21.92;;
23642;SDS011;11998;55.788;37.572;2022-12-10T01:03:09;48.93;;;22.40;;
23642;SDS011;11998;55.788;37.572;2022-12-10T01:04:12;51.53;;;22.67;;
23642;SDS011;11998;55.788;37.572;2022-12-10T01:05:15;50.75;;;21.88;;
23642;SDS011;11998;55.788;37.572;2022-12-10T01:06:17;49.47;;;21.53;;
23642;SDS011;11998;55.788;37.572;2022-12-10T01:07:23;48.42;;;21.10;;
23642;SDS011;11998;55.788;37.572;2022-12-10T01:08:23;53.17;;;22.27;;
23642;SDS011;11998;55.788;37.572;2022-12-10T01:09:25;48.63;;;22.50;;
23642;SDS011;11998;55.788;37.572;2022-12-10T01:10:27;44.00;;;21.35;;
23642;SDS011;11998;55.788;37.572;2022-12-10T01:11:29;48.57;;;22.23;;
23642;SDS011;11998;55.788;37.572;2022-12-10T01:12:31;45.63;;;21.52;;
23642;SDS011;11998;55.788;37.572;2022-12-10T01:13:31;46.13;;;21.43;;
23642;SDS011;11998;55.788;37.572;2022-12-10T01:14:33;48.23;;;22.43;;
23642;SDS011;11998;55.788;37.572;2022-12-10T01:15:36;51.30;;;22.35;;
23642;SDS011;11998;55.788;37.572;2022-12-10T01:16:38;55.80;;;22.02;;
23642;SDS011;11998;55.788;37.572;2022-12-10T01:17:38;48.97;;;22.83;;
23642;SDS011;11998;55.788;37.572;2022-12-10T01:18:39;44.83;;;20.60;;
23642;SDS011;11998;55.788;37.572;2022-12-10T01:19:40;47.40;;;20.50;;
23642;SDS011;11998;55.788;37.572;2022-12-10T01:20:40;42.43;;;19.83;;
23642;SDS011;11998;55.788;37.572;2022-12-10T01:21:41;47.17;;;21.67;;
23642;SDS011;11998;55.788;37.572;2022-12-10T01:22:41;50.43;;;22.17;;
23642;SDS011;11998;55.788;37.572;2022-12-10T01:23:42;44.83;;;21.00;;
23642;SDS011;11998;55.788;37.572;2022-12-10T01:24:44;44.83;;;20.58;;
23642;SDS011;11998;55.788;37.572;2022-12-10T01:25:44;51.40;;;20.60;;
23642;SDS011;11998;55.788;37.572;2022-12-10T01:26:46;44.25;;;21.05;;
23642;SDS011;11998;55.788;37.572;2022-12-10T01:27:46;54.80;;;22.20;;
23642;SDS011;11998;55.788;37.572;2022-12-10T01:28:47;47.93;;;21.27;;
23642;SDS011;11998;55.788;37.572;2022-12-10T01:29:48;44.28;;;20.10;;
23642;SDS011;11998;55.788;37.572;2022-12-10T01:30:49;44.37;;;20.43;;
23642;SDS011;11998;55.788;37.572;2022-12-10T01:31:50;46.87;;;22.73;;
23642;SDS011;11998;55.788;37.572;2022-12-10T01:32:52;46.20;;;21.02;;
23642;SDS011;11998;55.788;37.572;2022-12-10T01:33:53;38.63;;;20.10;;
23642;SDS011;11998;55.788;37.572;2022-12-10T01:34:55;49.72;;;20.75;;
23642;SDS011;11998;55.788;37.572;2022-12-10T01:35:57;49.23;;;21.17;;
23642;SDS011;11998;55.788;37.572;2022-12-10T01:37:05;46.42;;;21.00;;
23642;SDS011;11998;55.788;37.572;2022-12-10T01:38:06;49.77;;;19.77;;
23642;SDS011;11998;55.788;37.572;2022-12-10T01:39:07;50.60;;;21.37;;
23642;SDS011;11998;55.788;37.572;2022-12-10T01:40:10;45.20;;;21.38;;
23642;SDS011;11998;55.788;37.572;2022-12-10T01:41:18;65.18;;;20.73;;
23642;SDS011;11998;55.788;37.572;2022-12-10T01:42:23;42.67;;;21.33;;
23642;SDS011;11998;55.788;37.572;2022-12-10T01:43:24;36.87;;;19.13;;
23642;SDS011;11998;55.788;37.572;2022-12-10T01:45:27;47.17;;;21.27;;
23642;SDS011;11998;55.788;37.572;2022-12-10T01:46:32;45.22;;;21.08;;
23642;SDS011;11998;55.788;37.572;2022-12-10T01:47:34;43.55;;;19.70;;
23642;SDS011;11998;55.788;37.572;2022-12-10T01:48:35;48.63;;;20.83;;
23642;SDS011;11998;55.788;37.572;2022-12-10T01:49:36;51.80;;;22.27;;
23642;SDS011;11998;55.788;37.572;2022-12-10T01:50:38;51.95;;;22.42;;
23642;SDS011;11998;55.788;37.572;2022-12-10T01:51:40;57.03;;;22.90;;
23642;SDS011;11998;55.788;37.572;2022-12-10T01:52:42;55.65;;;22.15;;
23642;SDS011;11998;55.788;37.572;2022-12-10T01:53:43;49.10;;;20.40;;
23642;SDS011;11998;55.788;37.572;2022-12-10T01:54:46;50.50;;;21.73;;
23642;SDS011;11998;55.788;37.572;2022-12-10T01:55:50;53.83;;;22.13;;
23642;SDS011;11998;55.788;37.572;2022-12-10T01:56:54;48.97;;;21.60;;
23642;SDS011;11998;55.788;37.572;2022-12-10T01:57:59;49.15;;;21.48;;
23642;SDS011;11998;55.788;37.572;2022-12-10T01:58:59;52.97;;;22.07;;
23642;SDS011;11998;55.788;37.572;2022-12-10T02:00:01;43.13;;;20.33;;
23642;SDS011;11998;55.788;37.572;2022-12-10T02:01:09;53.75;;;21.70;;
23642;SDS011;11998;55.788;37.572;2022-12-10T02:09:26;51.80;;;21.77;;
23642;SDS011;11998;55.788;37.572;2022-12-10T02:12:25;53.22;;;20.83;;
23642;SDS011;11998;55.788;37.572;2022-12-10T02:14:48;45.08;;;20.50;;
23642;SDS011;11998;55.788;37.572;2022-12-10T02:16:12;52.08;;;20.65;;
23642;SDS011;11998;55.788;37.572;2022-12-10T02:17:20;42.70;;;19.63;;
23642;SDS011;11998;55.788;37.572;2022-12-10T02:18:27;46.08;;;20.38;;
23642;SDS011;11998;55.788;37.572;2022-12-10T02:19:39;44.38;;;20.75;;
23642;SDS011;11998;55.788;37.572;2022-12-10T02:20:52;41.83;;;20.05;;
23642;SDS011;11998;55.788;37.572;2022-12-10T02:21:57;46.72;;;21.55;;
23642;SDS011;11998;55.788;37.572;2022-12-10T02:23:01;46.80;;;22.33;;
23642;SDS011;11998;55.788;37.572;2022-12-10T02:24:07;49.40;;;22.38;;
23642;SDS011;11998;55.788;37.572;2022-12-10T02:25:14;45.30;;;21.83;;
23642;SDS011;11998;55.788;37.572;2022-12-10T02:26:22;54.45;;;23.02;;
23642;SDS011;11998;55.788;37.572;2022-12-10T02:27:53;51.65;;;22.00;;
23642;SDS011;11998;55.788;37.572;2022-12-10T02:29:18;45.95;;;20.45;;
23642;SDS011;11998;55.788;37.572;2022-12-10T02:30:20;55.88;;;22.38;;
23642;SDS011;11998;55.788;37.572;2022-12-10T02:31:23;52.67;;;22.20;;
23642;SDS011;11998;55.788;37.572;2022-12-10T02:32:32;49.85;;;22.05;;
23642;SDS011;11998;55.788;37.572;2022-12-10T02:33:39;61.03;;;24.15;;
23642;SDS011;11998;55.788;37.572;2022-12-10T02:34:45;51.75;;;22.52;;
23642;SDS011;11998;55.788;37.572;2022-12-10T02:35:50;52.15;;;22.35;;
23642;SDS011;11998;55.788;37.572;2022-12-10T02:36:53;54.65;;;24.70;;
23642;SDS011;11998;55.788;37.572;2022-12-10T02:37:57;62.95;;;24.45;;
23642;SDS011;11998;55.788;37.572;2022-12-10T02:39:02;50.08;;;23.55;;
23642;SDS011;11998;55.788;37.572;2022-12-10T02:40:07;54.92;;;24.27;;
23642;SDS011;11998;55.788;37.572;2022-12-10T02:41:20;53.15;;;22.83;;
23642;SDS011;11998;55.788;37.572;2022-12-10T02:42:26;51.25;;;22.10;;
23642;SDS011;11998;55.788;37.572;2022-12-10T02:43:29;57.30;;;24.05;;
23642;SDS011;11998;55.788;37.572;2022-12-10T02:44:30;49.17;;;23.33;;
23642;SDS011;11998;55.788;37.572;2022-12-10T02:45:36;55.10;;;25.08;;
23642;SDS011;11998;55.788;37.572;2022-12-10T02:46:37;59.58;;;25.65;;
23642;SDS011;11998;55.788;37.572;2022-12-10T02:47:40;62.15;;;25.38;;
23642;SDS011;11998;55.788;37.572;2022-12-10T02:48:41;59.88;;;25.27;;
23642;SDS011;11998;55.788;37.572;2022-12-10T02:49:43;56.28;;;26.00;;
23642;SDS011;11998;55.788;37.572;2022-12-10T02:50:47;61.95;;;26.40;;
23642;SDS011;11998;55.788;37.572;2022-12-10T02:51:47;57.27;;;25.40;;
23642;SDS011;11998;55.788;37.572;2022-12-10T02:52:48;63.63;;;26.30;;
23642;SDS011;11998;55.788;37.572;2022-12-10T02:53:58;67.37;;;28.07;;
23642;SDS011;11998;55.788;37.572;2022-12-10T02:55:08;64.60;;;26.20;;
23642;SDS011;11998;55.788;37.572;2022-12-10T02:56:14;66.60;;;27.08;;
23642;SDS011;11998;55.788;37.572;2022-12-10T03:00:16;63.35;;;27.13;;
23642;SDS011;11998;55.788;37.572;2022-12-10T03:02:38;61.28;;;26.05;;
23642;SDS011;11998;55.788;37.572;2022-12-10T03:03:49;59.15;;;24.70;;
23642;SDS011;11998;55.788;37.572;2022-12-10T03:05:03;57.97;;;26.63;;
23642;SDS011;11998;55.788;37.572;2022-12-10T03:06:17;62.72;;;26.20;;
23642;SDS011;11998;55.788;37.572;2022-12-10T03:07:27;68.10;;;26.42;;
23642;SDS011;11998;55.788;37.572;2022-12-10T03:08:38;63.42;;;25.77;;
23642;SDS011;11998;55.788;37.572;2022-12-10T03:09:53;74.38;;;25.00;;
23642;SDS011;11998;55.788;37.572;2022-12-10T03:11:13;60.42;;;25.00;;
23642;SDS011;11998;55.788;37.572;2022-12-10T03:12:43;66.68;;;26.42;;
23642;SDS011;11998;55.788;37.572;2022-12-10T03:14:47;64.87;;;25.57;;
23642;SDS011;11998;55.788;37.572;2022-12-10T03:15:48;53.58;;;24.83;;
23642;SDS011;11998;55.788;37.572;2022-12-10T03:16:55;57.92;;;25.13;;
23642;SDS011;11998;55.788;37.572;2022-12-10T03:17:58;63.95;;;25.42;;
23642;SDS011;11998;55.788;37.572;2022-12-10T03:19:04;68.60;;;26.88;;
23642;SDS011;11998;55.788;37.572;2022-12-10T03:20:11;56.38;;;24.77;;
23642;SDS011;11998;55.788;37.572;2022-12-10T03:21:14;61.28;;;25.27;;
23642;SDS011;11998;55.788;37.572;2022-12-10T03:22:17;68.05;;;25.58;;
23642;SDS011;11998;55.788;37.572;2022-12-10T03:23:20;68.50;;;27.23;;
23642;SDS011;11998;55.788;37.572;2022-12-10T03:24:20;59.27;;;24.57;;
23642;SDS011;11998;55.788;37.572;2022-12-10T03:25:24;60.25;;;24.92;;
23642;SDS011;11998;55.788;37.572;2022-12-10T03:26:26;58.35;;;25.20;;
23642;SDS011;11998;55.788;37.572;2022-12-10T03:27:27;58.47;;;24.27;;
23642;SDS011;11998;55.788;37.572;2022-12-10T03:28:31;60.08;;;26.08;;
23642;SDS011;11998;55.788;37.572;2022-12-10T03:29:50;67.00;;;26.23;;
23642;SDS011;11998;55.788;37.572;2022-12-10T03:30:53;73.68;;;26.50;;
23642;SDS011;11998;55.788;37.572;2022-12-10T03:31:55;63.58;;;27.52;;
23642;SDS011;11998;55.788;37.572;2022-12-10T03:32:58;64.47;;;26.15;;
23642;SDS011;11998;55.788;37.572;2022-12-10T03:34:00;63.03;;;26.63;;
23642;SDS011;11998;55.788;37.572;2022-12-10T03:35:02;59.85;;;26.13;;
23642;SDS011;11998;55.788;37.572;2022-12-10T03:36:04;80.28;;;28.13;;
23642;SDS011;11998;55.788;37.572;2022-12-10T03:37:06;67.15;;;27.42;;
23642;SDS011;11998;55.788;37.572;2022-12-10T03:38:07;63.57;;;27.57;;
23642;SDS011;11998;55.788;37.572;2022-12-10T03:39:08;61.08;;;26.95;;
23642;SDS011;11998;55.788;37.572;2022-12-10T03:40:10;61.87;;;26.70;;
23642;SDS011;11998;55.788;37.572;2022-12-10T03:41:12;67.53;;;29.00;;
23642;SDS011;11998;55.788;37.572;2022-12-10T03:42:13;75.07;;;28.97;;
23642;SDS011;11998;55.788;37.572;2022-12-10T03:43:14;72.27;;;29.00;;
23642;SDS011;11998;55.788;37.572;2022-12-10T03:44:19;67.77;;;28.73;;
23642;SDS011;11998;55.788;37.572;2022-12-10T03:45:28;73.35;;;27.13;;
23642;SDS011;11998;55.788;37.572;2022-12-10T03:46:29;67.83;;;27.60;;
23642;SDS011;11998;55.788;37.572;2022-12-10T03:47:31;75.72;;;31.30;;
23642;SDS011;11998;55.788;37.572;2022-12-10T03:48:32;66.67;;;28.63;;
23642;SDS011;11998;55.788;37.572;2022-12-10T03:49:32;64.73;;;28.07;;
23642;SDS011;11998;55.788;37.572;2022-12-10T03:50:33;69.83;;;27.23;;
23642;SDS011;11998;55.788;37.572;2022-12-10T03:51:34;72.40;;;28.53;;
23642;SDS011;11998;55.788;37.572;2022-12-10T03:52:34;66.50;;;27.90;;
23642;SDS011;11998;55.788;37.572;2022-12-10T03:53:35;65.63;;;29.05;;
23642;SDS011;11998;55.788;37.572;2022-12-10T03:54:36;68.43;;;28.50;;
23642;SDS011;11998;55.788;37.572;2022-12-10T03:55:37;76.87;;;30.20;;
23642;SDS011;11998;55.788;37.572;2022-12-10T03:56:38;71.43;;;28.53;;
23642;SDS011;11998;55.788;37.572;2022-12-10T03:57:38;67.63;;;29.73;;
23642;SDS011;11998;55.788;37.572;2022-12-10T03:58:39;69.87;;;30.00;;
23642;SDS011;11998;55.788;37.572;2022-12-10T03:59:39;65.87;;;30.33;;
23642;SDS011;11998;55.788;37.572;2022-12-10T04:00:40;75.97;;;30.80;;
23642;SDS011;11998;55.788;37.572;2022-12-10T04:01:41;73.80;;;30.67;;
23642;SDS011;11998;55.788;37.572;2022-12-10T04:02:41;74.23;;;30.67;;
23642;SDS011;11998;55.788;37.572;2022-12-10T04:03:42;69.30;;;32.50;;
23642;SDS011;11998;55.788;37.572;2022-12-10T04:04:43;76.87;;;32.27;;
23642;SDS011;11998;55.788;37.572;2022-12-10T04:05:44;77.18;;;32.03;;
23642;SDS011;11998;55.788;37.572;2022-12-10T04:06:45;79.40;;;32.67;;
23642;SDS011;11998;55.788;37.572;2022-12-10T04:07:46;79.90;;;32.60;;
23642;SDS011;11998;55.788;37.572;2022-12-10T04:08:47;81.80;;;33.70;;
23642;SDS011;11998;55.788;37.572;2022-12-10T04:09:48;86.07;;;32.35;;
23642;SDS011;11998;55.788;37.572;2022-12-10T04:10:48;77.90;;;32.43;;
23642;SDS011;11998;55.788;37.572;2022-12-10T04:11:49;84.97;;;33.43;;
23642;SDS011;11998;55.788;37.572;2022-12-10T04:12:49;80.83;;;32.27;;
23642;SDS011;11998;55.788;37.572;2022-12-10T04:14:10;82.80;;;30.83;;
23642;SDS011;11998;55.788;37.572;2022-12-10T04:15:30;74.53;;;31.90;;
23642;SDS011;11998;55.788;37.572;2022-12-10T04:16:49;80.07;;;31.70;;
23642;SDS011;11998;55.788;37.572;2022-12-10T04:17:50;86.13;;;33.53;;
23642;SDS011;11998;55.788;37.572;2022-12-10T04:18:50;84.57;;;33.70;;
23642;SDS011;11998;55.788;37.572;2022-12-10T04:19:51;74.90;;;32.23;;
23642;SDS011;11998;55.788;37.572;2022-12-10T04:20:51;72.87;;;32.77;;
23642;SDS011;11998;55.788;37.572;2022-12-10T04:22:11;79.47;;;33.85;;
23642;SDS011;11998;55.788;37.572;2022-12-10T04:23:30;82.75;;;32.13;;
23642;SDS011;11998;55.788;37.572;2022-12-10T04:24:49;74.20;;;32.95;;
23642;SDS011;11998;55.788;37.572;2022-12-10T04:26:08;77.18;;;31.90;;
23642;SDS011;11998;55.788;37.572;2022-12-10T04:27:38;73.43;;;30.98;;
23642;SDS011;11998;55.788;37.572;2022-12-10T04:28:40;83.80;;;33.63;;
23642;SDS011;11998;55.788;37.572;2022-12-10T04:29:40;73.30;;;31.90;;
23642;SDS011;11998;55.788;37.572;2022-12-10T04:30:41;84.67;;;33.57;;
23642;SDS011;11998;55.788;37.572;2022-12-10T04:31:41;74.00;;;31.87;;
23642;SDS011;11998;55.788;37.572;2022-12-10T04:32:42;80.13;;;31.90;;
23642;SDS011;11998;55.788;37.572;2022-12-10T04:33:43;73.25;;;30.80;;
23642;SDS011;11998;55.788;37.572;2022-12-10T04:34:44;71.67;;;30.97;;
23642;SDS011;11998;55.788;37.572;2022-12-10T04:35:44;67.43;;;31.40;;
23642;SDS011;11998;55.788;37.572;2022-12-10T04:36:45;69.37;;;29.87;;
23642;SDS011;11998;55.788;37.572;2022-12-10T04:37:46;68.75;;;30.85;;
23642;SDS011;11998;55.788;37.572;2022-12-10T04:38:47;67.53;;;30.77;;
23642;SDS011;11998;55.788;37.572;2022-12-10T04:39:49;71.10;;;30.13;;
23642;SDS011;11998;55.788;37.572;2022-12-10T04:40:50;67.38;;;30.10;;
23642;SDS011;11998;55.788;37.572;2022-12-10T04:41:51;61.27;;;28.03;;
23642;SDS011;11998;55.788;37.572;2022-12-10T04:42:51;62.60;;;28.20;;
23642;SDS011;11998;55.788;37.572;2022-12-10T04:43:52;66.63;;;30.90;;
23642;SDS011;11998;55.788;37.572;2022-12-10T04:44:53;68.37;;;30.37;;
23642;SDS011;11998;55.788;37.572;2022-12-10T04:45:55;70.13;;;30.40;;
23642;SDS011;11998;55.788;37.572;2022-12-10T04:46:56;66.43;;;28.92;;
23642;SDS011;11998;55.788;37.572;2022-12-10T04:47:57;72.78;;;29.73;;
23642;SDS011;11998;55.788;37.572;2022-12-10T04:48:57;66.10;;;30.37;;
23642;SDS011;11998;55.788;37.572;2022-12-10T04:49:58;65.03;;;28.50;;
23642;SDS011;11998;55.788;37.572;2022-12-10T04:50:58;62.57;;;29.20;;
23642;SDS011;11998;55.788;37.572;2022-12-10T04:51:59;64.73;;;29.03;;
23642;SDS011;11998;55.788;37.572;2022-12-10T04:53:00;70.87;;;30.40;;
23642;SDS011;11998;55.788;37.572;2022-12-10T04:54:00;68.43;;;30.97;;
23642;SDS011;11998;55.788;37.572;2022-12-10T04:55:01;60.43;;;28.10;;
23642;SDS011;11998;55.788;37.572;2022-12-10T04:56:02;67.10;;;28.53;;
23642;SDS011;11998;55.788;37.572;2022-12-10T04:57:05;56.55;;;26.90;;
23642;SDS011;11998;55.788;37.572;2022-12-10T04:58:07;61.30;;;27.55;;
23642;SDS011;11998;55.788;37.572;2022-12-10T04:59:07;60.23;;;28.17;;
23642;SDS011;11998;55.788;37.572;2022-12-10T05:00:09;63.75;;;29.27;;
23642;SDS011;11998;55.788;37.572;2022-12-10T05:01:11;71.13;;;28.95;;
23642;SDS011;11998;55.788;37.572;2022-12-10T05:02:12;64.10;;;28.85;;
23642;SDS011;11998;55.788;37.572;2022-12-10T05:03:13;68.10;;;29.60;;
23642;SDS011;11998;55.788;37.572;2022-12-10T05:04:15;66.47;;;28.80;;
23642;SDS011;11998;55.788;37.572;2022-12-10T05:05:16;63.72;;;28.90;;
23642;SDS011;11998;55.788;37.572;2022-12-10T05:06:17;65.00;;;28.53;;
23642;SDS011;11998;55.788;37.572;2022-12-10T05:07:19;59.65;;;28.55;;
23642;SDS011;11998;55.788;37.572;2022-12-10T05:08:20;60.50;;;28.92;;
23642;SDS011;11998;55.788;37.572;2022-12-10T05:09:21;69.33;;;30.33;;
23642;SDS011;11998;55.788;37.572;2022-12-10T05:10:22;73.65;;;30.58;;
23642;SDS011;11998;55.788;37.572;2022-12-10T05:11:24;65.93;;;28.80;;
23642;SDS011;11998;55.788;37.572;2022-12-10T05:12:26;69.53;;;29.80;;
23642;SDS011;11998;55.788;37.572;2022-12-10T05:13:28;60.33;;;28.77;;
23642;SDS011;11998;55.788;37.572;2022-12-10T05:14:29;71.55;;;29.92;;
23642;SDS011;11998;55.788;37.572;2022-12-10T05:15:29;63.20;;;29.57;;
23642;SDS011;11998;55.788;37.572;2022-12-10T05:16:31;67.53;;;29.83;;
23642;SDS011;11998;55.788;37.572;2022-12-10T05:17:33;64.25;;;29.52;;
23642;SDS011;11998;55.788;37.572;2022-12-10T05:18:34;62.33;;;30.23;;
23642;SDS011;11998;55.788;37.572;2022-12-10T05:19:35;62.00;;;28.42;;
23642;SDS011;11998;55.788;37.572;2022-12-10T05:20:35;66.97;;;29.67;;
23642;SDS011;11998;55.788;37.572;2022-12-10T05:21:36;69.87;;;30.20;;
23642;SDS011;11998;55.788;37.572;2022-12-10T05:22:55;63.97;;;28.35;;
23642;SDS011;11998;55.788;37.572;2022-12-10T05:24:15;64.22;;;29.05;;
23642;SDS011;11998;55.788;37.572;2022-12-10T05:25:17;60.92;;;27.52;;
23642;SDS011;11998;55.788;37.572;2022-12-10T05:26:21;61.17;;;28.87;;
23642;SDS011;11998;55.788;37.572;2022-12-10T05:27:23;68.68;;;28.27;;
23642;SDS011;11998;55.788;37.572;2022-12-10T05:28:24;56.43;;;28.30;;
23642;SDS011;11998;55.788;37.572;2022-12-10T05:29:25;62.60;;;28.65;;
23642;SDS011;11998;55.788;37.572;2022-12-10T05:30:26;65.50;;;29.80;;
23642;SDS011;11998;55.788;37.572;2022-12-10T05:31:27;64.23;;;29.43;;
23642;SDS011;11998;55.788;37.572;2022-12-10T05:32:29;64.72;;;28.48;;
23642;SDS011;11998;55.788;37.572;2022-12-10T05:33:30;66.90;;;29.80;;
23642;SDS011;11998;55.788;37.572;2022-12-10T05:34:30;64.67;;;29.43;;
23642;SDS011;11998;55.788;37.572;2022-12-10T05:35:31;61.93;;;29.13;;
23642;SDS011;11998;55.788;37.572;2022-12-10T05:36:32;62.90;;;30.33;;
23642;SDS011;11998;55.788;37.572;2022-12-10T05:37:32;64.60;;;29.47;;
23642;SDS011;11998;55.788;37.572;2022-12-10T05:38:33;63.53;;;29.97;;
23642;SDS011;11998;55.788;37.572;2022-12-10T05:39:34;63.67;;;29.00;;
23642;SDS011;11998;55.788;37.572;2022-12-10T05:40:35;68.27;;;30.60;;
23642;SDS011;11998;55.788;37.572;2022-12-10T05:41:37;62.63;;;29.58;;
23642;SDS011;11998;55.788;37.572;2022-12-10T05:42:38;54.53;;;28.30;;
23642;SDS011;11998;55.788;37.572;2022-12-10T05:43:39;69.00;;;29.13;;
23642;SDS011;11998;55.788;37.572;2022-12-10T05:44:40;62.47;;;29.38;;
23642;SDS011;11998;55.788;37.572;2022-12-10T05:45:40;63.83;;;29.30;;
23642;SDS011;11998;55.788;37.572;2022-12-10T05:46:41;64.50;;;30.43;;
23642;SDS011;11998;55.788;37.572;2022-12-10T05:47:42;64.60;;;30.53;;
23642;SDS011;11998;55.788;37.572;2022-12-10T05:48:42;59.63;;;28.97;;
23642;SDS011;11998;55.788;37.572;2022-12-10T05:49:43;60.50;;;29.37;;
23642;SDS011;11998;55.788;37.572;2022-12-10T05:50:44;61.53;;;29.17;;
23642;SDS011;11998;55.788;37.572;2022-12-10T05:51:44;61.30;;;30.13;;
23642;SDS011;11998;55.788;37.572;2022-12-10T05:52:45;67.93;;;29.30;;
23642;SDS011;11998;55.788;37.572;2022-12-10T05:53:45;61.20;;;28.47;;
23642;SDS011;11998;55.788;37.572;2022-12-10T05:54:46;64.27;;;28.53;;
23642;SDS011;11998;55.788;37.572;2022-12-10T05:55:47;65.90;;;29.83;;
23642;SDS011;11998;55.788;37.572;2022-12-10T05:56:47;61.50;;;29.00;;
23642;SDS011;11998;55.788;37.572;2022-12-10T05:57:48;56.97;;;29.00;;
23642;SDS011;11998;55.788;37.572;2022-12-10T05:58:49;61.33;;;28.87;;
23642;SDS011;11998;55.788;37.572;2022-12-10T05:59:53;60.83;;;28.50;;
23642;SDS011;11998;55.788;37.572;2022-12-10T06:00:54;63.13;;;29.30;;
23642;SDS011;11998;55.788;37.572;2022-12-10T06:01:58;61.90;;;29.73;;
23642;SDS011;11998;55.788;37.572;2022-12-10T06:02:59;54.27;;;27.83;;
23642;SDS011;11998;55.788;37.572;2022-12-10T06:04:00;57.33;;;28.10;;
23642;SDS011;11998;55.788;37.572;2022-12-10T06:05:02;65.00;;;29.30;;
23642;SDS011;11998;55.788;37.572;2022-12-10T06:06:03;58.33;;;27.80;;
23642;SDS011;11998;55.788;37.572;2022-12-10T06:07:04;59.97;;;28.08;;
23642;SDS011;11998;55.788;37.572;2022-12-10T06:08:05;64.83;;;29.17;;
23642;SDS011;11998;55.788;37.572;2022-12-10T06:09:09;67.72;;;30.33;;
23642;SDS011;11998;55.788;37.572;2022-12-10T06:10:12;64.65;;;30.08;;
23642;SDS011;11998;55.788;37.572;2022-12-10T06:11:13;59.30;;;28.13;;
23642;SDS011;11998;55.788;37.572;2022-12-10T06:12:13;61.70;;;29.00;;
23642;SDS011;11998;55.788;37.572;2022-12-10T06:13:14;65.13;;;29.80;;
23642;SDS011;11998;55.788;37.572;2022-12-10T06:14:14;63.97;;;28.50;;
23642;SDS011;11998;55.788;37.572;2022-12-10T06:15:15;58.63;;;29.27;;
23642;SDS011;11998;55.788;37.572;2022-12-10T06:16:16;61.23;;;27.97;;
23642;SDS011;11998;55.788;37.572;2022-12-10T06:17:16;58.80;;;30.07;;
23642;SDS011;11998;55.788;37.572;2022-12-10T06:18:17;64.40;;;29.67;;
23642;SDS011;11998;55.788;37.572;2022-12-10T06:19:17;60.53;;;29.33;;
23642;SDS011;11998;55.788;37.572;2022-12-10T06:20:18;66.97;;;30.10;;